Time;durP1;ratioP1;P1;durP2;ratioP2;P2;SDS_P1;SDS_P2;PMS_P1;PMS_P2;Temp;Humidity;BMP_temperature;BMP_pressure;BME280_temperature;BME280_humidity;BME280_pressure;Samples;Min_cycle;Max_cycle;Signal;HPM_P1;HPM_P2
2021/12/16 00:02:40;;;;;;;19.88;14.25;;;7.80;99.90;;;;;;4990246;28;20037;-47
2021/12/16 00:05:25;;;;;;;18.77;12.88;;;7.70;99.90;;;;;;4971362;28;20098;-50
2021/12/16 00:08:12;;;;;;;18.98;14.70;;;7.70;99.90;;;;;;4972964;28;20115;-49
2021/12/16 00:10:47;;;;;;;25.15;13.32;;;7.70;99.90;;;;;;4962157;28;20399;-47
2021/12/16 00:30:00;;;;;;;22.25;13.25;;;7.80;99.90;;;;;;4952976;28;20042;-48
2021/12/16 00:32:43;;;;;;;22.33;14.10;;;7.80;99.90;;;;;;4952863;28;20038;-48
2021/12/16 00:35:10;;;;;;;25.52;14.63;;;7.80;99.90;;;;;;4953597;28;20522;-45
2021/12/16 00:37:35;;;;;;;19.67;13.68;;;7.90;99.90;;;;;;4955314;28;20027;-44
2021/12/16 00:40:04;;;;;;;40.50;22.83;;;8.10;99.90;;;;;;4956364;28;20027;-50
2021/12/16 00:46:09;;;;;;;17.13;13.00;;;7.90;99.90;;;;;;4957193;28;20027;-48
2021/12/16 00:47:59;;;;;;;22.13;13.63;;;7.80;99.90;;;;;;4959112;28;20039;-45
2021/12/16 00:55:53;;;;;;;21.65;13.52;;;8.00;99.90;;;;;;4956495;29;20046;-46
2021/12/16 00:58:25;;;;;;;19.75;12.60;;;8.00;99.90;;;;;;4955366;28;20031;-54
2021/12/16 01:01:02;;;;;;;18.10;12.98;;;7.90;99.90;;;;;;4954883;28;20035;-46
2021/12/16 01:03:37;;;;;;;18.13;13.00;;;7.90;99.90;;;;;;4956333;28;20023;-48
2021/12/16 01:36:14;;;;;;;19.45;13.38;;;7.60;99.90;;;;;;4956352;28;20483;-49
2021/12/16 01:47:15;;;;;;;21.77;13.68;;;7.50;99.90;;;;;;4956027;29;20122;-49
2021/12/16 01:49:50;;;;;;;21.45;13.88;;;7.60;99.90;;;;;;4955308;28;20027;-47
2021/12/16 01:55:08;;;;;;;17.02;13.48;;;7.50;99.90;;;;;;4955691;28;20032;-53
2021/12/16 01:57:41;;;;;;;16.00;12.45;;;7.60;99.90;;;;;;4955478;28;20066;-50
2021/12/16 02:00:25;;;;;;;19.73;13.70;;;7.60;99.90;;;;;;4955055;28;20055;-50
2021/12/16 02:02:56;;;;;;;18.83;13.63;;;7.60;99.90;;;;;;4955255;28;20090;-47
2021/12/16 02:10:39;;;;;;;18.45;12.63;;;7.60;99.90;;;;;;4955213;28;20058;-50
2021/12/16 02:13:36;;;;;;;19.60;14.00;;;7.70;99.90;;;;;;4955108;28;20042;-48
2021/12/16 02:37:30;;;;;;;21.98;13.32;;;7.60;99.90;;;;;;4954811;28;20110;-49
2021/12/16 02:39:56;;;;;;;19.05;13.95;;;7.50;99.90;;;;;;4954313;28;20030;-51
2021/12/16 02:42:32;;;;;;;20.70;13.82;;;7.60;99.90;;;;;;4954517;28;20035;-46
2021/12/16 02:50:21;;;;;;;19.50;13.98;;;7.60;99.90;;;;;;4954426;28;20059;-47
2021/12/16 02:52:47;;;;;;;19.10;13.65;;;7.60;99.90;;;;;;4954220;28;20039;-53
2021/12/16 02:55:16;;;;;;;17.98;13.60;;;7.60;99.90;;;;;;4953274;28;20030;-49
2021/12/16 02:57:51;;;;;;;15.95;12.38;;;7.60;99.90;;;;;;4954917;28;20024;-48
2021/12/16 03:00:18;;;;;;;21.52;14.85;;;7.80;99.90;;;;;;4953402;28;20491;-48
2021/12/16 03:02:46;;;;;;;17.55;13.43;;;7.70;99.90;;;;;;4954295;28;20035;-51
2021/12/16 03:05:12;;;;;;;20.95;14.30;;;7.70;99.90;;;;;;4954245;28;20023;-47
2021/12/16 03:07:38;;;;;;;18.90;14.07;;;7.70;99.90;;;;;;4954278;28;20114;-48
2021/12/16 03:18:31;;;;;;;20.17;14.38;;;7.60;99.90;;;;;;4953502;28;20121;-45
2021/12/16 03:21:04;;;;;;;22.13;14.85;;;7.60;99.90;;;;;;4952427;28;20395;-47
2021/12/16 03:23:46;;;;;;;19.23;14.55;;;7.50;99.90;;;;;;4953829;28;20419;-47
2021/12/16 03:26:48;;;;;;;22.58;15.80;;;7.60;99.90;;;;;;4954044;29;20034;-46
2021/12/16 03:37:22;;;;;;;26.42;17.25;;;7.20;99.90;;;;;;4957302;28;20042;-49
2021/12/16 03:39:53;;;;;;;22.10;15.57;;;7.20;99.90;;;;;;4953384;28;20546;-48
2021/12/16 03:42:36;;;;;;;24.25;17.02;;;7.30;99.90;;;;;;4953645;28;20509;-47
2021/12/16 03:48:17;;;;;;;27.38;18.20;;;7.30;99.90;;;;;;4953992;29;20042;-48
2021/12/16 03:50:42;;;;;;;23.30;16.83;;;7.20;99.90;;;;;;4953677;28;20082;-49
2021/12/16 03:53:09;;;;;;;21.25;16.75;;;7.10;99.90;;;;;;4954077;28;20443;-48
2021/12/16 03:55:36;;;;;;;26.75;16.67;;;7.10;99.90;;;;;;4953611;28;20027;-48
2021/12/16 03:58:02;;;;;;;24.88;16.33;;;7.20;99.90;;;;;;4953575;28;20027;-49
2021/12/16 04:00:33;;;;;;;21.83;15.70;;;7.20;99.90;;;;;;4953730;28;20086;-49
2021/12/16 04:02:59;;;;;;;22.63;16.40;;;7.20;99.90;;;;;;4952884;28;20167;-50
2021/12/16 04:05:25;;;;;;;21.10;16.13;;;7.20;99.90;;;;;;4954434;28;20454;-51
2021/12/16 04:07:51;;;;;;;22.95;17.02;;;7.40;99.90;;;;;;4954486;28;20042;-53
2021/12/16 04:10:34;;;;;;;22.35;15.80;;;7.40;99.90;;;;;;4953761;28;20091;-47
2021/12/16 04:13:02;;;;;;;20.52;14.65;;;7.30;99.90;;;;;;4957255;28;20023;-49
2021/12/16 04:15:29;;;;;;;21.95;15.45;;;7.50;99.90;;;;;;4957364;28;20070;-49
2021/12/16 04:17:55;;;;;;;24.60;16.63;;;7.60;99.90;;;;;;4957318;28;20020;-46
2021/12/16 04:20:21;;;;;;;21.55;15.27;;;7.60;99.90;;;;;;4956539;28;20027;-47
2021/12/16 04:22:47;;;;;;;20.20;15.70;;;7.60;99.90;;;;;;4957130;28;20027;-47
2021/12/16 04:25:20;;;;;;;24.73;15.68;;;7.70;99.90;;;;;;4957281;28;20488;-48
2021/12/16 04:27:47;;;;;;;21.90;15.45;;;7.70;99.90;;;;;;4957286;28;20066;-52
2021/12/16 04:30:14;;;;;;;23.35;15.73;;;7.70;99.90;;;;;;4956662;28;20023;-47
2021/12/16 04:32:39;;;;;;;20.48;15.18;;;7.70;99.90;;;;;;4956931;28;20192;-46
2021/12/16 04:35:06;;;;;;;20.15;15.05;;;7.80;99.90;;;;;;4956983;28;20491;-46
2021/12/16 04:37:32;;;;;;;23.00;16.23;;;7.80;99.90;;;;;;4956972;28;20054;-53
2021/12/16 04:40:00;;;;;;;21.92;15.68;;;7.70;99.90;;;;;;4955150;28;20047;-52
2021/12/16 04:42:26;;;;;;;24.90;16.45;;;7.60;99.90;;;;;;4955622;28;20027;-49
2021/12/16 04:44:52;;;;;;;20.80;15.15;;;7.50;99.90;;;;;;4957296;28;20360;-49
2021/12/16 04:47:18;;;;;;;24.75;16.05;;;7.50;99.90;;;;;;4956627;28;20031;-47
2021/12/16 04:49:44;;;;;;;24.90;16.77;;;7.40;99.90;;;;;;4956394;28;20501;-49
2021/12/16 04:52:15;;;;;;;24.10;17.02;;;7.40;99.90;;;;;;4956555;28;20039;-47
2021/12/16 04:54:42;;;;;;;21.88;16.15;;;7.30;99.90;;;;;;4955470;28;20023;-51
2021/12/16 04:57:08;;;;;;;23.23;16.45;;;7.40;99.90;;;;;;4956632;28;20038;-48
2021/12/16 04:59:35;;;;;;;21.88;17.30;;;7.60;99.90;;;;;;4956135;28;20019;-48
2021/12/16 05:02:05;;;;;;;25.92;16.55;;;7.60;99.90;;;;;;4956335;28;20042;-49
2021/12/16 05:04:31;;;;;;;23.73;17.35;;;7.60;99.90;;;;;;4956508;28;20086;-48
2021/12/16 05:06:57;;;;;;;21.95;15.45;;;7.60;99.90;;;;;;4956730;28;20072;-46
2021/12/16 05:12:06;;;;;;;25.13;18.02;;;7.60;99.90;;;;;;4956130;28;20023;-47
2021/12/16 05:14:32;;;;;;;23.50;16.40;;;7.50;99.90;;;;;;4956243;28;20034;-52
2021/12/16 05:16:57;;;;;;;22.98;16.70;;;7.40;99.90;;;;;;4956265;28;20028;-48
2021/12/16 05:19:23;;;;;;;26.67;16.75;;;7.60;99.90;;;;;;4955410;28;20158;-50
2021/12/16 05:21:59;;;;;;;23.88;17.42;;;7.70;99.90;;;;;;4956325;28;20019;-53
2021/12/16 05:24:27;;;;;;;24.48;17.20;;;7.70;99.90;;;;;;4955703;28;20028;-51
2021/12/16 05:26:56;;;;;;;23.13;16.60;;;7.70;99.90;;;;;;4956026;28;20035;-48
2021/12/16 05:29:22;;;;;;;22.08;15.75;;;7.70;99.90;;;;;;4955529;28;20046;-48
2021/12/16 05:31:49;;;;;;;22.98;16.80;;;7.60;99.90;;;;;;4955749;28;20038;-46
2021/12/16 05:34:15;;;;;;;21.70;16.60;;;7.60;99.90;;;;;;4955688;28;20027;-45
2021/12/16 05:36:41;;;;;;;20.55;15.57;;;7.60;99.90;;;;;;4955860;28;20093;-48
2021/12/16 05:39:08;;;;;;;20.63;15.88;;;7.50;99.90;;;;;;4955748;28;20395;-52
2021/12/16 05:41:34;;;;;;;23.88;16.85;;;7.50;99.90;;;;;;4956007;28;20427;-55
2021/12/16 05:44:00;;;;;;;26.85;17.45;;;7.60;99.90;;;;;;4955736;28;20030;-49
2021/12/16 05:46:27;;;;;;;24.13;16.55;;;7.60;99.90;;;;;;4955819;28;20416;-50
2021/12/16 05:48:55;;;;;;;20.98;16.10;;;7.60;99.90;;;;;;4955503;28;20110;-47
2021/12/16 05:51:27;;;;;;;22.67;16.73;;;7.60;99.90;;;;;;4955013;28;20031;-48
2021/12/16 05:53:54;;;;;;;24.05;17.17;;;7.50;99.90;;;;;;4954094;28;20059;-46
2021/12/16 05:56:20;;;;;;;20.15;15.13;;;7.50;99.90;;;;;;4955534;28;20502;-45
2021/12/16 05:58:46;;;;;;;24.88;18.45;;;7.50;99.90;;;;;;4956352;28;20027;-49
2021/12/16 06:01:16;;;;;;;24.30;17.60;;;7.60;99.90;;;;;;4989780;23;20084;-48
2021/12/16 06:03:43;;;;;;;23.77;17.17;;;7.50;99.90;;;;;;4992609;28;20062;-46
2021/12/16 06:06:09;;;;;;;24.85;16.60;;;7.40;99.90;;;;;;4993885;28;20045;-51
2021/12/16 06:08:35;;;;;;;24.95;16.55;;;7.40;99.90;;;;;;4992659;28;20026;-51
2021/12/16 06:11:17;;;;;;;23.35;16.88;;;7.40;99.90;;;;;;4993490;28;20025;-44
2021/12/16 06:13:59;;;;;;;24.20;15.77;;;7.30;99.90;;;;;;4994025;28;20031;-46
2021/12/16 06:27:26;;;;;;;23.20;16.58;;;7.10;99.90;;;;;;4993833;28;20057;-45
2021/12/16 06:29:51;;;;;;;22.25;16.75;;;7.10;99.90;;;;;;4992016;28;20027;-45
2021/12/16 06:32:18;;;;;;;29.33;18.88;;;7.00;99.90;;;;;;4993199;28;20036;-47
2021/12/16 06:34:45;;;;;;;24.15;17.88;;;7.10;99.90;;;;;;4992698;28;20030;-47
2021/12/16 06:37:12;;;;;;;25.40;17.52;;;7.10;99.90;;;;;;4993652;28;20445;-45
2021/12/16 06:39:38;;;;;;;24.88;16.45;;;7.10;99.90;;;;;;4993067;28;20077;-44
2021/12/16 06:42:06;;;;;;;27.45;18.48;;;7.10;99.90;;;;;;4992995;28;20030;-44
2021/12/16 06:44:38;;;;;;;25.85;16.95;;;7.10;99.90;;;;;;4993126;28;20046;-45
2021/12/16 06:47:10;;;;;;;22.90;16.60;;;7.10;99.90;;;;;;4993506;28;20033;-47
2021/12/16 06:49:38;;;;;;;20.38;15.60;;;7.30;99.90;;;;;;4992766;28;20049;-45
2021/12/16 06:52:06;;;;;;;24.13;17.15;;;7.20;99.90;;;;;;4992825;28;20026;-47
2021/12/16 06:54:40;;;;;;;23.02;16.98;;;7.30;99.90;;;;;;4993055;28;20053;-46
2021/12/16 07:00:29;;;;;;;23.30;15.57;;;7.40;99.90;;;;;;4951356;29;20102;-43
2021/12/16 07:03:01;;;;;;;23.48;16.58;;;7.30;99.90;;;;;;4951929;28;20446;-45
2021/12/16 07:05:34;;;;;;;22.77;15.98;;;7.40;99.90;;;;;;4977756;28;20113;-45
2021/12/16 07:08:02;;;;;;;21.77;16.13;;;7.40;99.90;;;;;;4992900;28;20034;-48
2021/12/16 07:10:29;;;;;;;24.88;17.10;;;7.30;99.90;;;;;;4992306;28;20105;-45
2021/12/16 07:12:57;;;;;;;23.25;16.52;;;7.30;99.90;;;;;;4992697;28;20029;-46
2021/12/16 07:15:27;;;;;;;23.95;16.60;;;7.30;99.90;;;;;;4992642;28;20497;-44
2021/12/16 07:17:54;;;;;;;24.50;16.75;;;7.30;99.90;;;;;;4992613;28;20041;-47
2021/12/16 07:20:24;;;;;;;27.63;17.20;;;7.30;99.90;;;;;;4991957;28;20014;-47
2021/12/16 07:22:49;;;;;;;21.75;15.77;;;7.30;99.90;;;;;;4992565;28;20133;-48
2021/12/16 07:25:15;;;;;;;21.42;15.45;;;7.20;99.90;;;;;;4992387;28;20065;-48
2021/12/16 07:27:41;;;;;;;22.92;16.85;;;7.20;99.90;;;;;;4992643;28;20026;-50
2021/12/16 07:30:10;;;;;;;22.00;15.70;;;7.20;99.90;;;;;;4992207;28;20398;-44
2021/12/16 07:32:35;;;;;;;20.67;15.32;;;7.30;99.90;;;;;;4990881;28;20031;-45
2021/12/16 07:35:04;;;;;;;22.83;16.05;;;7.30;99.90;;;;;;4992273;28;20037;-47
2021/12/16 07:37:29;;;;;;;20.60;15.18;;;7.40;99.90;;;;;;4992418;28;20026;-47
2021/12/16 07:39:55;;;;;;;22.75;15.60;;;7.40;99.90;;;;;;4992269;28;20023;-45
2021/12/16 07:42:27;;;;;;;23.25;15.25;;;7.50;99.90;;;;;;4992809;28;20018;-47
2021/12/16 07:44:53;;;;;;;21.45;14.93;;;7.50;99.90;;;;;;4992521;28;20041;-45
2021/12/16 07:47:19;;;;;;;24.13;16.05;;;7.60;99.90;;;;;;4990767;28;20022;-44
2021/12/16 07:49:45;;;;;;;22.70;16.80;;;7.70;99.90;;;;;;4990806;28;20053;-44
2021/12/16 07:52:14;;;;;;;20.88;15.65;;;7.80;99.90;;;;;;4992080;28;20030;-47
2021/12/16 07:54:40;;;;;;;26.90;16.25;;;7.70;99.90;;;;;;4992334;28;20109;-45
2021/12/16 07:57:06;;;;;;;23.00;15.85;;;7.70;99.90;;;;;;4992373;28;20114;-44
2021/12/16 07:59:34;;;;;;;23.88;16.35;;;7.70;99.90;;;;;;4992830;28;20053;-46
2021/12/16 08:02:01;;;;;;;23.73;16.00;;;7.70;99.90;;;;;;4992339;28;20065;-47
2021/12/16 08:04:31;;;;;;;24.25;16.63;;;7.70;99.90;;;;;;4992795;28;20030;-46
2021/12/16 08:07:04;;;;;;;21.67;16.20;;;7.70;99.90;;;;;;4993143;28;20022;-46
2021/12/16 08:09:31;;;;;;;23.50;17.58;;;7.60;99.90;;;;;;4992327;28;20057;-49
2021/12/16 08:11:58;;;;;;;25.45;17.02;;;7.70;99.90;;;;;;4990990;28;20132;-43
2021/12/16 08:14:25;;;;;;;25.27;16.00;;;7.60;99.90;;;;;;4984598;28;20033;-44
2021/12/16 08:16:51;;;;;;;26.67;17.38;;;7.60;99.90;;;;;;4974863;28;20038;-41
2021/12/16 08:19:17;;;;;;;25.02;16.20;;;7.40;99.90;;;;;;4992662;28;20022;-41
2021/12/16 08:21:42;;;;;;;23.10;17.33;;;7.40;99.90;;;;;;4985401;28;20034;-42
2021/12/16 08:24:13;;;;;;;24.30;17.30;;;7.40;99.90;;;;;;4989561;28;20110;-49
2021/12/16 08:26:40;;;;;;;22.95;16.55;;;7.40;99.90;;;;;;4972645;28;20034;-43
2021/12/16 08:29:06;;;;;;;22.48;16.13;;;7.40;99.90;;;;;;4983826;28;20549;-42
2021/12/16 08:31:33;;;;;;;24.15;16.45;;;7.40;99.90;;;;;;4992004;28;20061;-43
2021/12/16 08:33:59;;;;;;;20.75;14.98;;;7.50;99.90;;;;;;4991634;28;20035;-44
2021/12/16 08:36:25;;;;;;;27.23;16.42;;;7.50;99.90;;;;;;4991070;28;20084;-46
2021/12/16 08:38:51;;;;;;;23.10;16.25;;;7.50;99.90;;;;;;4991723;28;20121;-47
2021/12/16 08:41:20;;;;;;;23.58;16.88;;;7.50;99.90;;;;;;4991433;28;20494;-49
2021/12/16 08:43:46;;;;;;;24.20;16.40;;;7.40;99.90;;;;;;4989702;28;20022;-42
2021/12/16 08:46:17;;;;;;;23.42;16.63;;;7.50;99.90;;;;;;4991835;28;20023;-42
2021/12/16 08:48:45;;;;;;;24.13;17.27;;;7.40;99.90;;;;;;4992121;28;20076;-45
2021/12/16 08:51:12;;;;;;;31.23;16.98;;;7.50;99.90;;;;;;4991163;28;20105;-45
2021/12/16 08:53:38;;;;;;;25.00;15.80;;;7.60;99.90;;;;;;4991681;28;20026;-44
2021/12/16 08:56:05;;;;;;;26.08;15.27;;;7.60;99.90;;;;;;4991711;28;20085;-45
2021/12/16 08:58:31;;;;;;;25.08;16.55;;;7.60;99.90;;;;;;4993712;28;20050;-47
2021/12/16 09:01:02;;;;;;;23.13;15.82;;;7.60;99.90;;;;;;4994942;28;20584;-44
2021/12/16 09:03:27;;;;;;;21.13;15.23;;;7.70;99.90;;;;;;4995337;28;20127;-45
2021/12/16 09:05:54;;;;;;;20.25;14.68;;;7.80;99.90;;;;;;4995017;28;20118;-44
2021/12/16 09:08:20;;;;;;;18.95;13.88;;;8.10;99.90;;;;;;4995238;28;20030;-45
2021/12/16 09:10:46;;;;;;;19.98;14.35;;;8.20;99.90;;;;;;4994976;28;20094;-45
2021/12/16 09:13:15;;;;;;;20.83;15.88;;;8.30;99.90;;;;;;4995013;28;20053;-43
2021/12/16 09:15:57;;;;;;;20.05;14.95;;;8.40;99.90;;;;;;4995189;28;20022;-45
2021/12/16 09:18:29;;;;;;;23.85;14.90;;;8.60;99.90;;;;;;4995065;28;20429;-45
2021/12/16 09:20:58;;;;;;;25.23;15.43;;;8.60;99.90;;;;;;4994688;28;20019;-45
2021/12/16 09:23:24;;;;;;;24.17;16.58;;;8.70;99.90;;;;;;4995102;28;20514;-45
2021/12/16 09:25:50;;;;;;;20.98;15.50;;;8.60;99.90;;;;;;4994785;28;20026;-45
2021/12/16 09:28:19;;;;;;;21.30;15.88;;;8.50;99.90;;;;;;4994803;28;20050;-44
2021/12/16 09:30:45;;;;;;;22.00;15.48;;;8.40;99.90;;;;;;4994548;28;20422;-44
2021/12/16 09:33:15;;;;;;;20.60;15.55;;;8.40;99.90;;;;;;4994608;28;20218;-46
2021/12/16 09:35:43;;;;;;;29.23;15.80;;;8.50;99.90;;;;;;4994690;28;20386;-42
2021/12/16 09:38:11;;;;;;;19.85;15.25;;;8.50;99.90;;;;;;4994577;28;20094;-45
2021/12/16 09:40:46;;;;;;;24.75;14.90;;;8.60;99.90;;;;;;4994491;28;20517;-45
2021/12/16 09:43:13;;;;;;;26.00;15.93;;;8.90;99.90;;;;;;4993337;28;20038;-46
2021/12/16 09:45:38;;;;;;;19.48;15.00;;;9.10;99.90;;;;;;4994830;28;20056;-45
2021/12/16 09:48:04;;;;;;;21.33;15.13;;;9.10;99.90;;;;;;4994464;28;20513;-45
2021/12/16 09:50:32;;;;;;;17.60;13.68;;;9.20;99.90;;;;;;4994317;28;20026;-45
2021/12/16 09:52:59;;;;;;;20.05;14.40;;;9.00;99.90;;;;;;4994355;28;20383;-45
2021/12/16 09:55:24;;;;;;;22.60;16.15;;;9.00;99.90;;;;;;4993274;28;20515;-49
2021/12/16 09:57:50;;;;;;;24.58;15.23;;;8.90;99.90;;;;;;4994380;28;20031;-44
2021/12/16 10:00:22;;;;;;;25.33;15.23;;;9.00;99.90;;;;;;4994043;28;20023;-44
2021/12/16 10:02:49;;;;;;;19.45;14.40;;;8.90;99.90;;;;;;4994297;28;20038;-44
2021/12/16 10:05:16;;;;;;;20.17;14.80;;;8.90;99.90;;;;;;4993776;28;20114;-44
2021/12/16 10:07:41;;;;;;;21.90;15.05;;;8.90;99.90;;;;;;4994295;28;20036;-44
2021/12/16 10:10:15;;;;;;;22.40;15.40;;;9.00;99.90;;;;;;4994062;28;20026;-43
2021/12/16 10:12:44;;;;;;;18.52;13.40;;;9.30;99.90;;;;;;4993991;28;20022;-45
2021/12/16 10:18:19;;;;;;;17.00;13.85;;;10.20;99.90;;;;;;4994581;28;20084;-43
2021/12/16 10:20:48;;;;;;;21.70;15.63;;;10.10;99.90;;;;;;4993900;28;20030;-44
2021/12/16 10:23:28;;;;;;;23.48;15.63;;;9.70;99.90;;;;;;4994244;28;20042;-46
2021/12/16 10:26:00;;;;;;;22.50;15.57;;;9.40;99.90;;;;;;4993593;28;20038;-47
2021/12/16 10:28:29;;;;;;;20.88;15.07;;;9.60;99.90;;;;;;4993335;28;20039;-44
2021/12/16 10:31:02;;;;;;;21.02;13.27;;;10.20;99.90;;;;;;4993341;28;20401;-57
2021/12/16 10:33:48;;;;;;;22.95;13.43;;;10.90;99.90;;;;;;4993465;28;20081;-47
2021/12/16 10:36:22;;;;;;;16.33;13.38;;;11.40;99.90;;;;;;4993909;28;20097;-46
2021/12/16 10:39:08;;;;;;;18.27;13.00;;;11.80;99.90;;;;;;4993508;28;20454;-43
2021/12/16 10:41:37;;;;;;;19.17;13.38;;;12.10;99.90;;;;;;4992987;28;20029;-46
2021/12/16 10:44:05;;;;;;;17.15;13.88;;;12.20;99.90;;;;;;4993542;28;20030;-47
2021/12/16 10:46:38;;;;;;;22.33;13.18;;;12.10;99.90;;;;;;4988604;28;20487;-45
2021/12/16 10:49:08;;;;;;;17.27;13.75;;;11.90;99.90;;;;;;4986959;28;20442;-45
2021/12/16 10:51:49;;;;;;;20.77;14.30;;;11.90;99.90;;;;;;4982739;28;20030;-44
2021/12/16 10:54:22;;;;;;;19.55;13.13;;;11.70;99.90;;;;;;4986885;28;20022;-45
2021/12/16 10:56:57;;;;;;;17.48;13.77;;;11.70;99.90;;;;;;4992407;28;20034;-45
2021/12/16 10:59:25;;;;;;;25.30;13.48;;;11.40;99.90;;;;;;4973871;28;20038;-42
2021/12/16 11:01:56;;;;;;;18.77;13.52;;;11.30;99.90;;;;;;4974236;28;20062;-45
2021/12/16 11:04:24;;;;;;;22.50;14.73;;;11.30;99.90;;;;;;4974012;28;20026;-46
2021/12/16 11:06:57;;;;;;;20.38;14.65;;;11.20;99.90;;;;;;4988679;28;20438;-47
2021/12/16 11:09:35;;;;;;;18.73;13.65;;;11.00;99.90;;;;;;4974100;28;20026;-43
2021/12/16 11:12:19;;;;;;;16.80;12.85;;;11.00;99.90;;;;;;4981074;28;20413;-45
2021/12/16 11:14:50;;;;;;;18.40;13.52;;;10.80;99.90;;;;;;4993693;28;20022;-45
2021/12/16 11:17:17;;;;;;;20.25;14.55;;;10.60;99.90;;;;;;5000077;28;20399;-49
2021/12/16 11:19:43;;;;;;;18.98;14.68;;;10.60;99.90;;;;;;4992688;28;20509;-44
2021/12/16 11:22:11;;;;;;;23.33;14.88;;;10.60;99.90;;;;;;4990546;28;20062;-45
2021/12/16 11:24:37;;;;;;;22.90;16.17;;;10.50;99.90;;;;;;4993138;28;20034;-44
2021/12/16 11:27:33;;;;;;;21.40;15.70;;;10.30;99.90;;;;;;4993245;28;20038;-43
2021/12/16 11:30:40;;;;;;;20.40;15.02;;;10.30;99.90;;;;;;4992630;28;20026;-45
2021/12/16 11:33:12;;;;;;;20.58;15.65;;;10.10;99.90;;;;;;4993086;28;20050;-46
2021/12/16 11:35:41;;;;;;;21.10;14.45;;;9.90;99.90;;;;;;4995475;28;20034;-52
2021/12/16 11:38:19;;;;;;;30.27;16.60;;;9.90;99.90;;;;;;4996512;28;20030;-52
2021/12/16 11:40:53;;;;;;;19.85;14.75;;;9.90;99.90;;;;;;4993211;28;20105;-51
2021/12/16 11:43:33;;;;;;;21.92;15.85;;;10.00;99.90;;;;;;4993440;28;20050;-45
2021/12/16 11:45:59;;;;;;;20.50;14.75;;;10.00;99.90;;;;;;4993181;28;20019;-45
2021/12/16 11:48:35;;;;;;;22.27;15.00;;;9.90;99.90;;;;;;4992276;28;20026;-49
2021/12/16 11:51:08;;;;;;;;;;;10.00;99.90;;;;;;4993436;28;20029;-48
2021/12/16 11:53:36;;;;;;;22.17;14.95;;;9.90;99.90;;;;;;4979670;28;19914;-44
2021/12/16 11:56:02;;;;;;;21.98;15.40;;;9.90;99.90;;;;;;4983113;28;20050;-44
2021/12/16 11:58:31;;;;;;;22.38;15.30;;;10.00;99.90;;;;;;4993767;28;20030;-46
2021/12/16 12:00:58;;;;;;;17.70;13.55;;;10.00;99.90;;;;;;4992560;28;20034;-46
2021/12/16 12:03:32;;;;;;;20.00;14.50;;;9.80;99.90;;;;;;5013255;23;20050;-46
2021/12/16 12:05:58;;;;;;;22.47;15.33;;;9.90;99.90;;;;;;4992547;28;20065;-46
2021/12/16 12:08:27;;;;;;;21.95;15.75;;;9.90;99.90;;;;;;4991985;28;20438;-45
2021/12/16 12:11:02;;;;;;;21.20;15.35;;;9.90;99.90;;;;;;4990898;28;20025;-51
2021/12/16 12:13:30;;;;;;;22.52;15.30;;;;;;;;;;4984680;28;20061;-52
2021/12/16 12:16:17;;;;;;;26.52;15.85;;;10.00;99.90;;;;;;4991532;28;20479;-47
2021/12/16 12:18:50;;;;;;;23.60;15.38;;;9.90;99.90;;;;;;4990715;28;20030;-45
2021/12/16 12:21:21;;;;;;;23.00;15.10;;;9.80;99.90;;;;;;4990856;28;20023;-49
2021/12/16 12:23:51;;;;;;;18.80;14.40;;;9.80;99.90;;;;;;4991911;28;20049;-45
2021/12/16 12:26:18;;;;;;;21.00;15.35;;;9.80;99.90;;;;;;4991809;28;20109;-47
2021/12/16 12:28:49;;;;;;;26.08;15.85;;;9.80;99.90;;;;;;4991973;28;20018;-47
2021/12/16 12:31:18;;;;;;;22.98;14.77;;;9.90;99.90;;;;;;4990420;28;20390;-47
2021/12/16 12:33:44;;;;;;;23.35;14.52;;;9.90;99.90;;;;;;4994453;28;20034;-46
2021/12/16 12:36:10;;;;;;;21.17;15.63;;;9.90;99.90;;;;;;4994411;28;20454;-43
2021/12/16 12:38:36;;;;;;;23.50;14.80;;;9.90;99.90;;;;;;4994503;28;20023;-46
2021/12/16 12:41:05;;;;;;;22.33;14.85;;;9.90;99.90;;;;;;4995377;28;20030;-45
2021/12/16 12:43:33;;;;;;;32.17;15.25;;;9.80;99.90;;;;;;4995508;28;20022;-46
2021/12/16 12:46:05;;;;;;;22.10;15.20;;;9.80;99.90;;;;;;4995434;28;20053;-44
2021/12/16 12:48:34;;;;;;;26.80;16.27;;;9.70;99.90;;;;;;4995668;28;20026;-46
2021/12/16 12:51:00;;;;;;;23.98;15.82;;;9.70;99.90;;;;;;4995433;28;20046;-50
2021/12/16 12:53:39;;;;;;;22.67;15.80;;;9.70;99.90;;;;;;4991251;28;20031;-48
2021/12/16 12:56:16;;;;;;;22.17;16.00;;;9.80;99.90;;;;;;4995440;28;20022;-49
2021/12/16 12:59:03;;;;;;;25.75;17.10;;;9.70;99.90;;;;;;4995319;28;20026;-46
2021/12/16 13:01:37;;;;;;;23.40;16.05;;;9.70;99.90;;;;;;4976076;28;20019;-42
2021/12/16 13:04:16;;;;;;;26.33;15.85;;;9.70;99.90;;;;;;4975651;28;20398;-47
2021/12/16 13:06:57;;;;;;;25.10;14.98;;;9.70;99.90;;;;;;4977918;28;20038;-51
2021/12/16 13:09:30;;;;;;;21.42;14.80;;;9.70;99.90;;;;;;4995138;28;20018;-50
2021/12/16 13:11:57;;;;;;;23.08;16.42;;;9.70;99.90;;;;;;4994696;28;20057;-46
2021/12/16 13:14:41;;;;;;;22.27;16.80;;;9.80;99.90;;;;;;4995096;28;20023;-45
2021/12/16 13:28:21;;;;;;;21.13;16.20;;;9.80;99.90;;;;;;5001737;28;20098;-50
2021/12/16 13:31:02;;;;;;;20.52;15.82;;;9.80;99.90;;;;;;4996235;28;20031;-44
2021/12/16 13:33:43;;;;;;;21.55;15.77;;;9.90;99.90;;;;;;4994535;28;20026;-44
2021/12/16 13:36:26;;;;;;;22.27;17.00;;;9.90;99.90;;;;;;4990955;28;20640;-44
2021/12/16 13:38:53;;;;;;;25.08;16.33;;;10.00;99.90;;;;;;4992847;28;20098;-47
2021/12/16 13:41:22;;;;;;;22.65;16.23;;;10.00;99.90;;;;;;4999543;28;20041;-50
2021/12/16 13:44:04;;;;;;;21.02;14.45;;;10.00;99.90;;;;;;4990632;28;20110;-49
2021/12/16 13:46:50;;;;;;;23.95;15.45;;;10.00;99.90;;;;;;4995006;28;20029;-46
2021/12/16 14:03:15;;;;;;;23.23;15.73;;;10.00;99.90;;;;;;4994748;28;20052;-45
2021/12/16 14:06:33;;;;;;;22.23;16.27;;;10.10;99.90;;;;;;4994106;28;20034;-49
2021/12/16 14:08:44;;;;;;;22.38;16.70;;;10.00;99.90;;;;;;4996144;28;20041;-48
2021/12/16 14:14:42;;;;;;;24.98;16.48;;;10.00;99.90;;;;;;4993931;28;20031;-47
2021/12/16 14:17:29;;;;;;;27.02;16.27;;;10.00;99.90;;;;;;4976851;28;20030;-51
2021/12/16 14:23:14;;;;;;;23.98;16.42;;;9.90;99.90;;;;;;4993895;28;20029;-45
2021/12/16 14:26:05;;;;;;;20.40;15.90;;;9.90;99.90;;;;;;4974250;28;20642;-44
2021/12/16 14:31:33;;;;;;;21.13;15.32;;;9.90;99.90;;;;;;4974081;28;20038;-52
2021/12/16 14:39:43;;;;;;;23.33;16.65;;;9.80;99.90;;;;;;4974111;28;20398;-42
2021/12/16 14:45:18;;;;;;;21.65;16.30;;;9.90;99.90;;;;;;4964101;28;20038;-47
2021/12/16 14:48:21;;;;;;;22.83;16.95;;;9.80;99.90;;;;;;4974833;28;20023;-50
2021/12/16 14:51:00;;;;;;;25.60;17.25;;;9.70;99.90;;;;;;4973980;28;20029;-50
2021/12/16 14:53:47;;;;;;;24.25;16.52;;;9.70;99.90;;;;;;4974280;28;20487;-52
2021/12/16 14:56:16;;;;;;;38.75;18.77;;;9.70;99.90;;;;;;4974213;28;20022;-46
2021/12/16 14:58:44;;;;;;;23.00;16.65;;;9.70;99.90;;;;;;4974303;28;20026;-47
2021/12/16 15:01:17;;;;;;;28.40;16.33;;;9.70;99.90;;;;;;4973817;28;20026;-46
2021/12/16 15:03:44;;;;;;;21.85;16.70;;;9.70;99.90;;;;;;4974136;28;20411;-46
2021/12/16 15:06:19;;;;;;;24.17;16.77;;;9.70;99.90;;;;;;4973890;28;20023;-51
2021/12/16 15:11:53;;;;;;;26.10;17.27;;;9.70;99.90;;;;;;4974250;28;20391;-46
2021/12/16 15:44:55;;;;;;;23.85;16.02;;;9.50;99.90;;;;;;4973327;28;20038;-45
2021/12/16 15:47:21;;;;;;;25.45;17.15;;;9.40;99.90;;;;;;4973127;28;20508;-46
2021/12/16 15:49:48;;;;;;;28.58;16.95;;;9.30;99.90;;;;;;4972680;28;20034;-49
2021/12/16 15:52:15;;;;;;;34.25;20.50;;;9.30;99.90;;;;;;4972930;28;20033;-45
2021/12/16 15:54:47;;;;;;;31.35;20.35;;;9.30;99.90;;;;;;4973135;28;20085;-46
2021/12/16 15:57:13;;;;;;;52.80;38.30;;;9.30;99.90;;;;;;4972987;28;20027;-50
2021/12/16 15:59:44;;;;;;;41.47;24.63;;;9.30;99.90;;;;;;4972744;28;20037;-48
2021/12/16 16:02:11;;;;;;;34.53;20.30;;;9.30;99.90;;;;;;4973458;28;20031;-44
2021/12/16 16:04:38;;;;;;;27.17;18.25;;;9.30;99.90;;;;;;4974017;28;20110;-52
2021/12/16 16:07:09;;;;;;;28.38;18.25;;;9.40;99.90;;;;;;4974628;28;20422;-50
2021/12/16 16:09:44;;;;;;;28.88;18.23;;;9.30;99.90;;;;;;4977537;28;20049;-50
2021/12/16 16:12:15;;;;;;;;;;;9.30;99.90;;;;;;4977230;28;20478;-47
2021/12/16 16:14:44;;;;;;;28.08;17.95;;;9.30;99.90;;;;;;4976952;28;19937;-47
2021/12/16 16:17:15;;;;;;;26.23;18.80;;;9.30;99.90;;;;;;4976845;28;20372;-49
2021/12/16 16:19:42;;;;;;;29.48;19.33;;;9.30;99.90;;;;;;4976969;28;20391;-48
2021/12/16 16:22:09;;;;;;;26.00;17.73;;;9.30;99.90;;;;;;4976707;28;20126;-47
2021/12/16 16:24:36;;;;;;;24.40;18.65;;;9.30;99.90;;;;;;4976687;28;20110;-47
2021/12/16 16:27:09;;;;;;;22.08;16.25;;;9.30;99.90;;;;;;4977187;28;20031;-51
2021/12/16 16:29:36;;;;;;;25.08;16.58;;;9.20;99.90;;;;;;4975226;28;20090;-46